Centerville, Utah
Current Conditions -  °F | °C
As of 12:33 PM on Monday 22 Dec 2014 (Local Time) from KSLC Reporting Station
Broken Clouds Broken Clouds  
Wind Chill:   Ceiling: 3100
Heat Index:   Visibility: 10mi
Dew Point:   Wind: 3mph
Humidity: 74%   Direction: 30°NNE
Pressure: 30"   Gusts: NA
Location:  40.92°N, 111.87°W
Report Text: KSLC 221933Z 03003KT 10SM SCT025 BKN031 BKN039 06/02 A3000 RMK AO2 T00610017
Loading
Personal Weather Stations






























Interactive Weather Map New forecast layout! Learn more

10-Day Weather Forecast

Advertisements
Track Severe Weather on mobile